createdAt,value
2019-05-15T00:00:49.965Z,55.54
2019-05-15T00:01:49.945Z,55.64
2019-05-15T00:02:49.954Z,55.23
2019-05-15T00:03:49.942Z,55.64
2019-05-15T00:04:49.916Z,55.95
2019-05-15T00:05:49.902Z,55.85
2019-05-15T00:06:49.887Z,55.23
2019-05-15T00:07:49.896Z,55.64
2019-05-15T00:08:49.875Z,55.64
2019-05-15T00:09:49.866Z,55.85
2019-05-15T00:10:49.848Z,56.16
2019-05-15T00:11:49.836Z,55.43
2019-05-15T00:12:49.842Z,55.77
2019-05-15T00:13:49.837Z,55.85
2019-05-15T00:14:49.802Z,55.85
2019-05-15T00:15:49.795Z,55.23
2019-05-15T00:16:49.782Z,55.95
2019-05-15T00:17:49.785Z,55.74
2019-05-15T00:18:49.758Z,55.54
2019-05-15T00:19:49.753Z,56.26
2019-05-15T00:20:49.907Z,55.74
2019-05-15T00:21:49.732Z,55.85
2019-05-15T00:22:49.734Z,56.05
2019-05-15T00:23:49.730Z,56.05
2019-05-15T00:24:49.692Z,55.95
2019-05-15T00:25:49.684Z,56.57
2019-05-15T00:26:49.670Z,56.05
2019-05-15T00:27:49.662Z,56.39
2019-05-15T00:28:49.680Z,55.64
2019-05-15T00:29:49.637Z,56.05
2019-05-15T00:30:49.623Z,55.43
2019-05-15T00:31:49.615Z,55.66
2019-05-15T00:32:49.625Z,55.87
2019-05-15T00:33:49.606Z,56.08
2019-05-15T00:34:49.582Z,56.90
2019-05-15T00:35:49.576Z,55.87
2019-05-15T00:36:49.560Z,56.08
2019-05-15T00:37:49.566Z,55.74
2019-05-15T00:38:49.534Z,55.87
2019-05-15T00:39:49.532Z,55.98
2019-05-15T00:40:49.793Z,56.08
2019-05-15T00:41:54.304Z,56.08
2019-05-15T00:42:50.590Z,55.98
2019-05-15T00:43:49.635Z,56.18
2019-05-15T00:44:49.514Z,56.39
2019-05-15T00:45:49.462Z,56.18
2019-05-15T00:46:49.458Z,56.39
2019-05-15T00:47:49.453Z,56.49
2019-05-15T00:48:49.442Z,56.29
2019-05-15T00:49:49.424Z,56.29
2019-05-15T00:50:49.407Z,56.49
2019-05-15T00:51:49.394Z,56.70
2019-05-15T00:52:49.401Z,56.60
2019-05-15T00:53:49.387Z,56.70
2019-05-15T00:54:49.355Z,56.60
2019-05-15T00:55:49.352Z,56.81
2019-05-15T00:56:49.341Z,57.01
2019-05-15T00:57:49.346Z,56.49
2019-05-15T00:58:49.315Z,56.70
2019-05-15T00:59:49.311Z,56.81
2019-05-15T01:00:49.300Z,57.42
2019-05-15T01:01:49.288Z,57.21
2019-05-15T01:02:49.290Z,57.34
2019-05-15T01:03:49.500Z,57.34
2019-05-15T01:04:49.317Z,56.93
2019-05-15T01:05:49.259Z,57.24
2019-05-15T01:06:52.560Z,57.14
2019-05-15T01:07:49.232Z,57.97
2019-05-15T01:08:49.209Z,58.07
2019-05-15T01:09:49.202Z,57.97
2019-05-15T01:10:49.217Z,58.20
2019-05-15T01:11:49.173Z,58.30
2019-05-15T01:12:49.164Z,58.51
2019-05-15T01:13:49.180Z,58.61
2019-05-15T01:14:49.165Z,58.92
2019-05-15T01:15:49.213Z,58.82
2019-05-15T01:16:49.187Z,58.82
2019-05-15T01:17:49.281Z,58.92
2019-05-15T01:18:51.878Z,58.61
2019-05-15T01:19:49.083Z,59.88
2019-05-15T01:20:49.848Z,59.36
2019-05-15T01:21:49.096Z,59.23
2019-05-15T01:22:49.067Z,58.95
2019-05-15T01:23:49.055Z,58.95
2019-05-15T01:24:49.034Z,59.16
2019-05-15T01:25:49.107Z,59.57
2019-05-15T01:26:49.343Z,59.03
2019-05-15T01:27:49.123Z,59.36
2019-05-15T01:28:49.619Z,60.27
2019-05-15T01:29:49.495Z,60.09
2019-05-15T01:30:48.960Z,60.09
2019-05-15T01:31:49.151Z,60.19
2019-05-15T01:32:48.942Z,59.36
2019-05-15T01:33:48.947Z,60.09
2019-05-15T01:34:49.234Z,59.95
2019-05-15T01:35:49.033Z,59.57
2019-05-15T01:36:49.141Z,60.09
2019-05-15T01:37:48.881Z,59.88
2019-05-15T01:38:48.896Z,60.40
2019-05-15T01:39:48.859Z,59.78
2019-05-15T01:40:48.854Z,60.50
2019-05-15T01:41:49.578Z,59.67
2019-05-15T01:42:49.980Z,60.30
2019-05-15T01:43:49.190Z,60.71
2019-05-15T01:44:48.806Z,61.02
2019-05-15T01:45:48.795Z,60.50
2019-05-15T01:46:48.784Z,60.71
2019-05-15T01:47:48.777Z,60.50
2019-05-15T01:48:49.455Z,60.40
2019-05-15T01:49:49.172Z,60.81
2019-05-15T01:50:49.336Z,60.91
2019-05-15T01:51:48.727Z,60.91
2019-05-15T01:52:48.722Z,60.71
2019-05-15T01:53:48.791Z,60.71
2019-05-15T01:54:49.031Z,61.33
2019-05-15T01:55:48.683Z,60.81
2019-05-15T01:56:49.510Z,60.91
2019-05-15T01:57:48.798Z,60.91
2019-05-15T01:58:48.888Z,61.33
2019-05-15T01:59:57.311Z,60.40
2019-05-15T02:00:49.632Z,60.40
2019-05-15T02:01:48.795Z,60.91
2019-05-15T02:02:48.608Z,60.37
2019-05-15T02:03:49.291Z,60.91
2019-05-15T02:04:48.828Z,60.91
2019-05-15T02:05:48.572Z,61.36
2019-05-15T02:06:48.564Z,61.43
2019-05-15T02:07:48.552Z,61.54
2019-05-15T02:08:49.764Z,61.33
2019-05-15T02:09:49.227Z,61.12
2019-05-15T02:10:49.324Z,61.54
2019-05-15T02:11:48.959Z,61.64
2019-05-15T02:12:48.508Z,61.64
2019-05-15T02:13:48.487Z,60.81
2019-05-15T02:14:48.668Z,61.74
2019-05-15T02:15:48.473Z,61.43
2019-05-15T02:16:48.592Z,61.57
2019-05-15T02:17:48.447Z,61.64
2019-05-15T02:18:48.927Z,61.95
2019-05-15T02:19:48.648Z,61.74
2019-05-15T02:20:49.330Z,61.54
2019-05-15T02:21:48.736Z,61.95
2019-05-15T02:22:48.616Z,61.95
2019-05-15T02:23:48.387Z,62.16
2019-05-15T02:24:48.394Z,61.98
2019-05-15T02:25:48.356Z,61.85
2019-05-15T02:26:48.424Z,62.26
2019-05-15T02:27:48.338Z,62.39
2019-05-15T02:28:48.931Z,62.26
2019-05-15T02:29:49.266Z,62.18
2019-05-15T02:30:50.607Z,62.05
2019-05-15T02:31:50.324Z,62.57
2019-05-15T02:32:50.071Z,62.60
2019-05-15T02:33:49.806Z,62.57
2019-05-15T02:34:50.011Z,62.57
2019-05-15T02:35:50.065Z,62.05
2019-05-15T02:36:49.283Z,62.49
2019-05-15T02:37:48.877Z,62.49
2019-05-15T02:38:48.751Z,62.49
2019-05-15T02:39:49.522Z,62.70
2019-05-15T02:40:49.440Z,62.91
2019-05-15T02:41:49.188Z,62.39
2019-05-15T02:42:49.316Z,62.91
2019-05-15T02:43:50.086Z,62.91
2019-05-15T02:44:50.044Z,62.60
2019-05-15T02:45:50.810Z,62.91
2019-05-15T02:46:50.027Z,62.91
2019-05-15T02:47:48.830Z,62.49
2019-05-15T02:48:48.880Z,62.91
2019-05-15T02:49:48.724Z,62.60
2019-05-15T02:50:50.046Z,62.91
2019-05-15T02:51:49.419Z,62.81
2019-05-15T02:52:49.771Z,62.49
2019-05-15T02:53:50.041Z,62.60
2019-05-15T02:54:49.857Z,62.91
2019-05-15T02:55:49.555Z,62.60
2019-05-15T02:56:49.464Z,63.01
2019-05-15T02:57:49.483Z,63.01
2019-05-15T02:58:49.110Z,62.91
2019-05-15T02:59:49.950Z,62.91
2019-05-15T03:00:52.877Z,63.12
2019-05-15T03:01:49.478Z,62.60
2019-05-15T03:02:49.842Z,62.63
2019-05-15T03:03:49.811Z,62.94
2019-05-15T03:04:48.525Z,62.94
2019-05-15T03:05:49.846Z,63.01
2019-05-15T03:06:49.573Z,63.15
2019-05-15T03:07:49.338Z,62.84
2019-05-15T03:08:49.476Z,62.84
2019-05-15T03:09:49.658Z,63.15
2019-05-15T03:10:49.737Z,63.56
2019-05-15T03:11:49.420Z,63.87
2019-05-15T03:12:49.524Z,63.25
2019-05-15T03:13:50.410Z,63.87
2019-05-15T03:14:49.073Z,63.56
2019-05-15T03:15:48.962Z,63.66
2019-05-15T03:16:49.734Z,63.66
2019-05-15T03:17:49.519Z,63.59
2019-05-15T03:18:50.627Z,63.76
2019-05-15T03:19:49.794Z,63.38
2019-05-15T03:20:50.130Z,63.59
2019-05-15T03:21:49.741Z,63.46
2019-05-15T03:22:49.275Z,63.38
2019-05-15T03:23:50.733Z,63.48
2019-05-15T03:24:50.238Z,64.07
2019-05-15T03:25:49.029Z,63.69
2019-05-15T03:26:49.664Z,63.69
2019-05-15T03:27:49.970Z,64.11
2019-05-15T03:28:49.579Z,64.31
2019-05-15T03:29:49.379Z,64.31
2019-05-15T03:31:22.573Z,64.42
2019-05-15T03:32:05.202Z,64.31
2019-05-15T03:32:55.805Z,65.14
2019-05-15T03:33:53.665Z,64.83
2019-05-15T03:34:55.636Z,64.94
2019-05-15T03:35:53.671Z,65.04
2019-05-15T03:36:53.135Z,64.86
2019-05-15T03:37:49.185Z,65.25
2019-05-15T03:38:49.911Z,65.17
2019-05-15T03:39:51.609Z,65.59
2019-05-15T03:40:49.801Z,65.38
2019-05-15T03:41:49.719Z,65.48
2019-05-15T03:42:49.671Z,65.59
2019-05-15T03:43:49.685Z,65.48
2019-05-15T03:44:50.152Z,65.69
2019-05-15T03:45:49.243Z,65.56
2019-05-15T03:46:49.194Z,66.00
2019-05-15T03:47:49.170Z,65.90
2019-05-15T03:48:48.741Z,65.77
2019-05-15T03:49:49.437Z,65.80
2019-05-15T03:50:48.845Z,65.97
2019-05-15T03:51:50.014Z,65.80
2019-05-15T03:52:49.685Z,65.77
2019-05-15T03:53:49.816Z,65.77
2019-05-15T03:54:49.513Z,65.97
2019-05-15T03:55:48.940Z,65.66
2019-05-15T03:56:49.931Z,65.77
2019-05-15T03:57:49.930Z,65.56
2019-05-15T03:58:49.387Z,65.56
2019-05-15T03:59:48.992Z,65.87
2019-05-15T04:00:49.816Z,65.56
2019-05-15T04:01:49.686Z,65.45
2019-05-15T04:02:48.801Z,65.42
2019-05-15T04:03:49.587Z,65.42
2019-05-15T04:04:50.180Z,65.77
2019-05-15T04:05:49.457Z,65.53
2019-05-15T04:06:49.860Z,65.73
2019-05-15T04:07:49.603Z,65.42
2019-05-15T04:08:49.580Z,65.42
2019-05-15T04:09:49.410Z,65.63
2019-05-15T04:10:48.785Z,65.42
2019-05-15T04:11:49.754Z,67.29
2019-05-15T04:12:49.318Z,67.39
2019-05-15T04:13:49.952Z,68.29
2019-05-15T04:14:49.947Z,67.15
2019-05-15T04:15:50.044Z,67.25
2019-05-15T04:16:49.645Z,66.63
2019-05-15T04:17:49.290Z,67.43
2019-05-15T04:18:49.034Z,67.77
2019-05-15T04:19:49.648Z,66.29
2019-05-15T04:20:49.387Z,65.70
2019-05-15T04:21:49.370Z,66.09
2019-05-15T04:22:49.196Z,65.88
2019-05-15T04:23:49.706Z,65.99
2019-05-15T04:24:49.375Z,65.36
2019-05-15T04:25:49.409Z,65.05
2019-05-15T04:26:48.676Z,64.74
2019-05-15T04:27:49.296Z,64.84
2019-05-15T04:28:49.411Z,65.57
2019-05-15T04:29:49.233Z,65.33
2019-05-15T04:30:49.561Z,64.81
2019-05-15T04:31:56.410Z,64.92
2019-05-15T04:32:48.777Z,64.51
2019-05-15T04:33:49.153Z,64.40
2019-05-15T04:34:48.937Z,64.20
2019-05-15T04:35:49.636Z,65.23
2019-05-15T04:36:49.460Z,64.20
2019-05-15T04:37:49.495Z,64.30
2019-05-15T04:38:49.755Z,63.96
2019-05-15T04:39:49.105Z,63.85
2019-05-15T04:40:49.860Z,63.23
2019-05-15T04:41:49.735Z,63.96
2019-05-15T04:42:49.603Z,63.03
2019-05-15T04:43:49.364Z,62.82
2019-05-15T04:44:49.512Z,63.44
2019-05-15T04:45:49.694Z,63.23
2019-05-15T04:46:49.525Z,64.27
2019-05-15T04:47:49.658Z,63.00
2019-05-15T04:48:49.880Z,62.30
2019-05-15T04:49:50.341Z,62.41
2019-05-15T04:50:49.460Z,62.27
2019-05-15T04:51:49.755Z,61.69
2019-05-15T04:52:49.922Z,62.07
2019-05-15T04:53:49.900Z,61.76
2019-05-15T04:54:49.311Z,61.87
2019-05-15T04:55:49.212Z,61.97
2019-05-15T04:56:48.875Z,61.87
2019-05-15T04:57:49.931Z,61.66
2019-05-15T04:58:50.273Z,61.55
2019-05-15T04:59:49.490Z,61.76
2019-05-15T05:00:49.489Z,61.55
2019-05-15T05:01:46.628Z,60.83
2019-05-15T05:02:49.486Z,61.04
2019-05-15T05:03:49.378Z,60.93
2019-05-15T05:04:49.197Z,61.04
2019-05-15T05:05:49.552Z,61.04
2019-05-15T05:06:49.285Z,60.63
2019-05-15T05:07:49.060Z,60.73
2019-05-15T05:08:49.094Z,60.73
2019-05-15T05:09:48.900Z,60.39
2019-05-15T05:10:48.855Z,60.18
2019-05-15T05:11:48.832Z,60.70
2019-05-15T05:12:50.554Z,60.08
2019-05-15T05:13:48.468Z,59.98
2019-05-15T05:14:48.429Z,59.56
2019-05-15T05:15:49.571Z,59.23
2019-05-15T05:16:48.847Z,59.64
2019-05-15T05:17:48.895Z,59.95
2019-05-15T05:18:48.886Z,59.84
2019-05-15T05:19:47.856Z,58.71
2019-05-15T05:20:48.442Z,58.81
2019-05-15T05:21:47.943Z,58.99
2019-05-15T05:22:48.325Z,58.61
2019-05-15T05:23:48.423Z,58.58
2019-05-15T05:24:47.825Z,57.76
2019-05-15T05:25:48.824Z,57.55
2019-05-15T05:26:48.865Z,56.83
2019-05-15T05:27:48.534Z,57.24
2019-05-15T05:28:48.430Z,57.11
2019-05-15T05:29:48.059Z,56.70
2019-05-15T05:30:48.245Z,56.80
2019-05-15T05:31:49.009Z,56.70
2019-05-15T05:32:48.625Z,56.49
2019-05-15T05:33:48.494Z,56.29
2019-05-15T05:34:48.262Z,56.67
2019-05-15T05:35:48.653Z,56.16
2019-05-15T05:36:48.008Z,56.05
2019-05-15T05:37:48.078Z,55.64
2019-05-15T05:38:46.216Z,55.21
2019-05-15T05:39:48.212Z,56.46
2019-05-15T05:40:46.195Z,55.54
2019-05-15T05:41:48.553Z,55.64
2019-05-15T05:42:47.973Z,55.51
2019-05-15T05:43:48.585Z,55.10
2019-05-15T05:44:46.148Z,55.82
2019-05-15T05:45:46.141Z,55.41
2019-05-15T05:46:46.128Z,55.51
2019-05-15T05:47:48.333Z,54.28
2019-05-15T05:48:46.123Z,54.15
2019-05-15T05:49:46.095Z,55.18
2019-05-15T05:50:46.090Z,55.38
2019-05-15T05:51:48.097Z,55.07
2019-05-15T05:52:46.063Z,54.77
2019-05-15T05:53:47.992Z,54.35
2019-05-15T05:54:46.041Z,54.87
2019-05-15T05:55:46.028Z,55.46
2019-05-15T05:56:48.121Z,54.97
2019-05-15T05:57:46.004Z,54.94
2019-05-15T05:58:46.010Z,54.64
2019-05-15T05:59:45.986Z,54.53
2019-05-15T06:00:48.614Z,54.33
2019-05-15T06:01:48.317Z,54.74
2019-05-15T06:02:48.796Z,54.94
2019-05-15T06:03:49.021Z,54.74
2019-05-15T06:04:47.841Z,54.30
2019-05-15T06:05:45.930Z,53.81
2019-05-15T06:06:45.928Z,54.02
2019-05-15T06:07:45.969Z,54.10
2019-05-15T06:08:48.045Z,54.20
2019-05-15T06:09:45.887Z,54.10
2019-05-15T06:10:45.865Z,54.20
2019-05-15T06:11:45.860Z,54.10
2019-05-15T06:12:45.842Z,54.20
2019-05-15T06:13:45.851Z,53.77
2019-05-15T06:14:45.821Z,54.49
2019-05-15T06:15:45.805Z,54.17
2019-05-15T06:16:47.993Z,53.56
2019-05-15T06:17:47.991Z,53.85
2019-05-15T06:18:45.800Z,54.15
2019-05-15T06:19:48.040Z,52.61
2019-05-15T06:20:45.753Z,52.71
2019-05-15T06:21:54.716Z,52.61
2019-05-15T06:22:47.941Z,52.89
2019-05-15T06:23:48.489Z,53.10
2019-05-15T06:24:48.536Z,51.76
2019-05-15T06:25:48.400Z,51.64
2019-05-15T06:26:47.981Z,51.64
2019-05-15T06:27:48.042Z,51.72
2019-05-15T06:28:45.670Z,51.51
2019-05-15T06:29:45.689Z,51.92
2019-05-15T06:30:45.638Z,50.59
2019-05-15T06:31:45.635Z,50.59
2019-05-15T06:33:01.911Z,50.79
2019-05-15T06:33:48.864Z,50.46
2019-05-15T06:34:45.617Z,50.05
2019-05-15T06:35:45.588Z,50.46
2019-05-15T06:36:45.572Z,49.54
2019-05-15T06:37:45.567Z,49.00
2019-05-15T06:38:48.160Z,49.74
2019-05-15T06:39:45.564Z,49.72
2019-05-15T06:40:45.528Z,48.80
2019-05-15T06:41:48.089Z,48.92
2019-05-15T06:42:48.250Z,47.59
2019-05-15T06:43:45.494Z,47.89
2019-05-15T06:44:45.510Z,47.69
2019-05-15T06:45:45.475Z,48.51
2019-05-15T06:46:45.465Z,47.18
2019-05-15T06:47:45.460Z,47.79
2019-05-15T06:48:45.441Z,47.08
2019-05-15T06:49:45.455Z,48.21
2019-05-15T06:50:45.415Z,46.46
2019-05-15T06:51:45.405Z,48.39
2019-05-15T06:52:45.397Z,46.46
2019-05-15T06:53:45.403Z,46.87
2019-05-15T06:54:45.396Z,46.46
2019-05-15T06:55:45.359Z,45.31
2019-05-15T06:56:45.353Z,44.90
2019-05-15T06:57:45.342Z,45.31
2019-05-15T06:58:45.330Z,45.10
2019-05-15T06:59:45.338Z,45.00
2019-05-15T07:00:45.309Z,44.37
2019-05-15T07:01:47.960Z,43.96
2019-05-15T07:02:45.288Z,44.37
2019-05-15T07:03:45.278Z,44.47
2019-05-15T07:04:45.287Z,44.78
2019-05-15T07:05:45.253Z,44.47
2019-05-15T07:06:45.242Z,43.04
2019-05-15T07:07:45.243Z,42.93
2019-05-15T07:08:45.220Z,44.37
2019-05-15T07:09:45.230Z,44.86
2019-05-15T07:10:45.196Z,44.35
2019-05-15T07:11:45.200Z,44.04
2019-05-15T07:12:48.430Z,44.14
2019-05-15T07:13:48.474Z,42.99
2019-05-15T07:14:45.178Z,42.99
2019-05-15T07:15:45.137Z,42.90
2019-05-15T07:16:45.132Z,43.08
2019-05-15T07:17:45.116Z,42.57
2019-05-15T07:18:45.115Z,42.24
2019-05-15T07:19:45.120Z,42.02
2019-05-15T07:20:45.089Z,41.30
2019-05-15T07:21:45.080Z,41.40
2019-05-15T07:22:45.072Z,40.85
2019-05-15T07:23:45.054Z,39.94
2019-05-15T07:24:45.070Z,40.14
2019-05-15T07:25:45.032Z,40.95
2019-05-15T07:26:45.023Z,40.34
2019-05-15T07:27:45.007Z,39.94
2019-05-15T07:28:45.016Z,40.34
2019-05-15T07:29:44.998Z,39.22
2019-05-15T07:30:44.989Z,39.12
2019-05-15T07:31:44.960Z,38.81
2019-05-15T07:32:44.959Z,38.73
2019-05-15T07:33:44.985Z,37.99
2019-05-15T07:34:44.958Z,38.62
2019-05-15T07:35:44.928Z,38.60
2019-05-15T07:36:44.909Z,38.01
2019-05-15T07:37:44.907Z,38.11
2019-05-15T07:38:44.887Z,38.71
2019-05-15T07:39:44.894Z,37.89
2019-05-15T07:40:44.895Z,37.98
2019-05-15T07:41:44.860Z,39.00
2019-05-15T07:42:44.842Z,38.16
2019-05-15T07:43:44.828Z,38.98
2019-05-15T07:44:44.831Z,37.24
2019-05-15T07:45:44.953Z,37.04
2019-05-15T07:46:44.808Z,37.14
2019-05-15T07:47:44.791Z,36.83
2019-05-15T07:48:44.790Z,36.73
2019-05-15T07:49:44.803Z,37.55
2019-05-15T07:50:44.758Z,37.96
2019-05-15T07:51:44.743Z,37.24
2019-05-15T07:52:44.735Z,37.45
2019-05-15T07:53:44.724Z,37.35
2019-05-15T07:54:44.722Z,36.94
2019-05-15T07:55:44.707Z,37.45
2019-05-15T07:56:44.698Z,37.14
2019-05-15T07:57:44.679Z,36.83
2019-05-15T07:58:44.678Z,36.94
2019-05-15T07:59:44.679Z,37.14
2019-05-15T08:00:44.643Z,37.24
2019-05-15T08:01:44.638Z,37.85
2019-05-15T08:02:44.626Z,37.43
2019-05-15T08:03:58.516Z,37.53
2019-05-15T08:04:45.643Z,37.84
2019-05-15T08:05:58.043Z,38.14
2019-05-15T08:06:45.577Z,38.23
2019-05-15T08:07:44.565Z,37.92
2019-05-15T08:08:44.554Z,38.33
2019-05-15T08:09:44.558Z,37.51
2019-05-15T08:10:44.564Z,37.90
2019-05-15T08:11:44.519Z,36.68
2019-05-15T08:12:44.510Z,37.19
2019-05-15T08:13:44.492Z,36.17
2019-05-15T08:14:47.351Z,35.85
2019-05-15T08:15:45.487Z,35.44
2019-05-15T08:16:44.464Z,35.64
2019-05-15T08:18:45.444Z,35.46
2019-05-15T08:19:44.438Z,34.95
2019-05-15T08:20:44.435Z,34.54
2019-05-15T08:21:44.400Z,34.44
2019-05-15T08:22:45.969Z,34.75
2019-05-15T08:23:44.390Z,34.54
2019-05-15T08:24:44.371Z,35.25
2019-05-15T08:25:44.376Z,35.86
2019-05-15T08:26:05.713Z,35.05
2019-05-15T08:26:45.637Z,35.34
2019-05-15T08:27:44.345Z,35.03
2019-05-15T08:28:44.333Z,34.53
2019-05-15T08:29:44.316Z,32.78
2019-05-15T08:30:44.337Z,32.68
2019-05-15T08:31:44.304Z,31.86
2019-05-15T08:32:44.311Z,32.47
2019-05-15T08:33:44.269Z,32.05
2019-05-15T08:34:44.261Z,32.25
2019-05-15T08:35:48.003Z,31.85
2019-05-15T08:36:45.247Z,31.52
2019-05-15T08:37:44.238Z,30.71
2019-05-15T08:38:44.212Z,31.22
2019-05-15T08:39:44.205Z,31.71
2019-05-15T08:40:44.222Z,31.82
2019-05-15T08:41:44.197Z,31.31
2019-05-15T08:42:44.172Z,31.10
2019-05-15T08:43:44.157Z,31.31
2019-05-15T08:44:44.154Z,31.41
2019-05-15T08:45:44.175Z,31.80
2019-05-15T08:46:44.443Z,30.40
2019-05-15T08:47:44.109Z,30.60
2019-05-15T08:48:44.124Z,31.40
2019-05-15T08:49:44.124Z,30.89
2019-05-15T08:50:44.216Z,31.59
2019-05-15T08:51:44.070Z,29.66
2019-05-15T08:52:44.057Z,29.45
2019-05-15T08:53:44.054Z,28.94
2019-05-15T08:54:44.048Z,29.54
2019-05-15T08:55:44.048Z,29.33
2019-05-15T08:56:44.012Z,29.74
2019-05-15T08:57:44.009Z,29.33
2019-05-15T08:58:43.997Z,29.32
2019-05-15T08:59:43.983Z,30.64
2019-05-15T09:00:44.300Z,28.92
2019-05-15T09:01:43.952Z,28.51
2019-05-15T09:02:43.944Z,28.61
2019-05-15T09:03:43.938Z,28.70
2019-05-15T09:04:43.930Z,28.80
2019-05-15T09:05:43.942Z,29.71
2019-05-15T09:06:43.943Z,28.60
2019-05-15T09:07:43.899Z,28.60
2019-05-15T09:08:43.890Z,29.11
2019-05-15T09:09:43.864Z,29.92
2019-05-15T09:10:43.880Z,29.82
2019-05-15T09:11:43.849Z,30.02
2019-05-15T09:12:43.844Z,30.22
2019-05-15T09:13:44.508Z,30.54
2019-05-15T09:14:43.817Z,30.04
2019-05-15T09:15:43.823Z,30.86
2019-05-15T09:16:43.790Z,30.35
2019-05-15T09:17:43.784Z,31.57
2019-05-15T09:18:43.775Z,32.06
2019-05-15T09:19:43.756Z,31.57
2019-05-15T09:20:43.764Z,31.48
2019-05-15T09:21:43.734Z,31.20
2019-05-15T09:22:43.727Z,31.70
2019-05-15T09:23:43.714Z,31.60
2019-05-15T09:24:43.706Z,31.26
2019-05-15T09:25:43.718Z,31.98
2019-05-15T09:26:43.684Z,32.18
2019-05-15T09:27:43.674Z,31.66
2019-05-15T09:28:43.659Z,32.57
2019-05-15T09:29:43.644Z,32.17
2019-05-15T09:30:43.667Z,32.45
2019-05-15T09:31:43.634Z,33.04
2019-05-15T09:32:43.612Z,32.03
2019-05-15T09:33:43.630Z,30.91
2019-05-15T09:34:50.557Z,31.73
2019-05-15T09:35:44.599Z,32.74
2019-05-15T09:36:45.220Z,31.51
2019-05-15T09:37:43.555Z,31.73
2019-05-15T09:38:43.542Z,30.91
2019-05-15T09:39:43.533Z,31.44
2019-05-15T09:40:46.571Z,31.74
2019-05-15T09:41:44.542Z,31.45
2019-05-15T09:42:43.500Z,32.38
2019-05-15T09:43:43.492Z,32.79
2019-05-15T09:44:43.491Z,33.72
2019-05-15T09:45:43.494Z,33.21
2019-05-15T09:46:43.479Z,33.62
2019-05-15T09:47:43.449Z,33.92
2019-05-15T09:48:43.442Z,32.62
2019-05-15T09:49:43.426Z,33.23
2019-05-15T09:50:43.424Z,34.34
2019-05-15T09:51:43.427Z,34.04
2019-05-15T09:52:43.398Z,33.75
2019-05-15T09:53:43.376Z,33.63
2019-05-15T09:54:43.365Z,34.55
2019-05-15T09:55:43.361Z,34.65
2019-05-15T09:56:43.368Z,33.83
2019-05-15T09:57:43.344Z,33.94
2019-05-15T09:58:43.330Z,34.43
2019-05-15T09:59:43.329Z,33.62
2019-05-15T10:00:43.305Z,34.31
2019-05-15T10:01:43.308Z,33.29
2019-05-15T10:02:43.281Z,33.40
2019-05-15T10:03:44.545Z,32.79
2019-05-15T10:04:43.256Z,32.98
2019-05-15T10:05:43.246Z,33.18
2019-05-15T10:06:43.250Z,33.26
2019-05-15T10:07:43.226Z,33.16
2019-05-15T10:08:43.205Z,32.34
2019-05-15T10:09:43.199Z,32.23
2019-05-15T10:10:43.188Z,33.15
2019-05-15T10:11:43.201Z,32.84
2019-05-15T10:12:43.179Z,33.15
2019-05-15T10:13:43.156Z,33.16
2019-05-15T10:14:43.140Z,32.25
2019-05-15T10:15:43.130Z,32.05
2019-05-15T10:16:43.139Z,32.03
2019-05-15T10:17:43.134Z,32.03
2019-05-15T10:18:43.108Z,32.23
2019-05-15T10:19:43.090Z,32.34
2019-05-15T10:20:43.080Z,32.65
2019-05-15T10:21:43.149Z,33.18
2019-05-15T10:22:43.055Z,33.07
2019-05-15T10:23:43.052Z,33.18
2019-05-15T10:24:43.035Z,33.07
2019-05-15T10:25:43.021Z,33.48
2019-05-15T10:26:43.046Z,34.00
2019-05-15T10:27:43.002Z,34.21
2019-05-15T10:28:42.999Z,34.00
2019-05-15T10:29:42.980Z,34.41
2019-05-15T10:30:42.960Z,34.41
2019-05-15T10:31:42.972Z,34.41
2019-05-15T10:32:42.942Z,35.04
2019-05-15T10:33:42.941Z,34.53
2019-05-15T10:34:42.940Z,34.44
2019-05-15T10:35:42.910Z,34.55
2019-05-15T10:36:42.926Z,34.46
2019-05-15T10:37:42.883Z,34.16
2019-05-15T10:38:42.921Z,34.55
2019-05-15T10:39:42.858Z,35.17
2019-05-15T10:40:58.647Z,34.46
2019-05-15T10:41:43.864Z,35.27
2019-05-15T10:42:42.836Z,35.78
2019-05-15T10:43:45.777Z,35.27
2019-05-15T10:44:43.808Z,34.26
2019-05-15T10:45:43.481Z,35.17
2019-05-15T10:46:42.802Z,34.16
2019-05-15T10:47:42.773Z,34.26
2019-05-15T10:48:42.762Z,35.46
2019-05-15T10:49:42.750Z,34.46
2019-05-15T10:50:42.741Z,34.05
2019-05-15T10:51:42.764Z,35.38
2019-05-15T10:52:42.741Z,35.56
2019-05-15T10:53:42.704Z,35.58
2019-05-15T10:54:42.699Z,35.77
2019-05-15T10:55:42.713Z,35.88
2019-05-15T10:56:42.674Z,35.38
2019-05-15T10:57:44.591Z,35.68
2019-05-15T10:58:42.656Z,35.68
2019-05-15T10:59:42.642Z,35.38
2019-05-15T11:00:42.633Z,35.99
2019-05-15T11:01:42.617Z,36.80
2019-05-15T11:02:42.627Z,36.29
2019-05-15T11:03:42.593Z,35.68
2019-05-15T11:04:42.585Z,36.10
2019-05-15T11:05:45.737Z,36.00
2019-05-15T11:06:42.562Z,35.49
2019-05-15T11:07:42.576Z,36.10
2019-05-15T11:08:42.545Z,35.70
2019-05-15T11:09:42.530Z,36.00
2019-05-15T11:10:42.516Z,36.41
2019-05-15T11:11:42.508Z,37.32
2019-05-15T11:12:42.518Z,36.00
2019-05-15T11:13:42.498Z,36.61
2019-05-15T11:14:42.480Z,36.90
2019-05-15T11:15:42.763Z,35.99
2019-05-15T11:16:42.450Z,35.88
2019-05-15T11:17:42.460Z,35.68
2019-05-15T11:18:42.546Z,35.27
2019-05-15T11:19:42.634Z,35.78
2019-05-15T11:20:42.404Z,35.48
2019-05-15T11:21:43.610Z,35.86
2019-05-15T11:22:42.980Z,34.95
2019-05-15T11:23:42.795Z,35.36
2019-05-15T11:24:42.367Z,35.77
2019-05-15T11:25:42.356Z,35.46
2019-05-15T11:26:42.348Z,36.07
2019-05-15T11:27:42.348Z,36.05
2019-05-15T11:28:42.325Z,35.64
2019-05-15T11:29:42.305Z,35.85
2019-05-15T11:30:42.301Z,35.64
2019-05-15T11:31:42.285Z,35.64
2019-05-15T11:32:42.305Z,35.44
2019-05-15T11:33:42.264Z,35.75
2019-05-15T11:34:42.258Z,35.86
2019-05-15T11:35:56.983Z,35.05
2019-05-15T11:36:43.240Z,35.66
2019-05-15T11:37:45.838Z,36.27
2019-05-15T11:38:42.210Z,36.78
2019-05-15T11:39:46.105Z,36.39
2019-05-15T11:40:42.177Z,36.90
2019-05-15T11:41:42.175Z,36.60
2019-05-15T11:42:42.182Z,37.41
2019-05-15T11:43:42.148Z,38.32
2019-05-15T11:44:42.133Z,37.80
2019-05-15T11:45:42.123Z,38.53
2019-05-15T11:46:42.114Z,38.32
2019-05-15T11:47:42.121Z,38.00
2019-05-15T11:48:42.088Z,37.90
2019-05-15T11:49:42.086Z,37.90
2019-05-15T11:50:42.074Z,38.00
2019-05-15T11:51:42.066Z,37.70
2019-05-15T11:52:42.078Z,37.07
2019-05-15T11:53:42.045Z,37.88
2019-05-15T11:54:42.026Z,36.66
2019-05-15T11:55:42.017Z,37.35
2019-05-15T11:56:42.002Z,37.05
2019-05-15T11:57:46.993Z,36.65
2019-05-15T11:58:42.979Z,36.75
2019-05-15T11:59:45.226Z,36.73
2019-05-15T12:00:41.965Z,36.43
2019-05-15T12:01:41.945Z,36.02
2019-05-15T12:02:41.971Z,36.02
2019-05-15T12:03:41.926Z,36.41
2019-05-15T12:04:41.914Z,36.21
2019-05-15T12:05:41.907Z,35.90
2019-05-15T12:06:41.900Z,35.78
2019-05-15T12:07:41.937Z,35.58
2019-05-15T12:08:41.868Z,35.97
2019-05-15T12:09:41.857Z,35.26
2019-05-15T12:10:41.843Z,34.84
2019-05-15T12:11:41.836Z,35.24
2019-05-15T12:12:41.857Z,34.11
2019-05-15T12:13:41.815Z,33.91
2019-05-15T12:14:41.806Z,33.91
2019-05-15T12:15:41.790Z,34.31
2019-05-15T12:16:41.838Z,33.81
2019-05-15T12:17:41.767Z,34.22
2019-05-15T12:18:41.755Z,34.42
2019-05-15T12:19:42.964Z,34.62
2019-05-15T12:20:41.739Z,34.22
2019-05-15T12:21:41.740Z,34.64
2019-05-15T12:22:41.736Z,35.65
2019-05-15T12:23:41.701Z,35.26
2019-05-15T12:24:41.686Z,35.26
2019-05-15T12:25:41.689Z,35.68
2019-05-15T12:26:41.687Z,35.38
2019-05-15T12:27:41.685Z,35.78
2019-05-15T12:28:41.646Z,35.68
2019-05-15T12:29:41.640Z,35.17
2019-05-15T12:30:41.629Z,35.28
2019-05-15T12:31:41.642Z,35.58
2019-05-15T12:32:41.639Z,35.48
2019-05-15T12:33:41.616Z,35.19
2019-05-15T12:34:41.595Z,35.19
2019-05-15T12:35:41.564Z,34.87
2019-05-15T12:36:51.727Z,35.58
2019-05-15T12:37:42.569Z,33.94
2019-05-15T12:38:41.536Z,34.25
2019-05-15T12:39:41.529Z,34.43
2019-05-15T12:59:44.637Z,37.05
2019-05-15T13:00:41.292Z,37.66
2019-05-15T13:01:41.280Z,37.96
2019-05-15T13:02:41.304Z,37.56
2019-05-15T13:03:41.278Z,38.70
2019-05-15T13:04:41.246Z,38.39
2019-05-15T13:05:41.231Z,40.03
2019-05-15T13:06:49.427Z,38.71
2019-05-15T13:07:42.211Z,40.34
2019-05-15T13:08:41.218Z,39.83
2019-05-15T13:09:41.182Z,40.64
2019-05-15T13:10:41.182Z,40.25
2019-05-15T13:11:41.168Z,39.83